createdAt,value
2018-07-06T06:09:04.382Z,18.30
2018-07-06T06:11:39.402Z,18.70
2018-07-06T06:14:14.359Z,18.80
2018-07-06T06:16:48.536Z,18.80
2018-07-06T06:19:24.778Z,18.80
2018-07-06T06:21:54.427Z,18.90
2018-07-06T06:24:24.363Z,19.10
2018-07-06T06:29:23.292Z,19.30
2018-07-06T06:31:53.943Z,19.40
2018-07-06T06:34:24.161Z,19.40
2018-07-06T06:36:54.763Z,19.50
2018-07-06T06:39:24.571Z,19.70
2018-07-06T06:46:55.126Z,20.30
2018-07-06T06:49:25.343Z,20.30
2018-07-06T06:51:55.897Z,20.40
2018-07-06T06:54:26.283Z,20.60
2018-07-06T06:56:55.827Z,20.60
2018-07-06T07:01:54.601Z,20.70
2018-07-06T07:04:25.053Z,20.70
2018-07-06T07:06:55.745Z,20.80
2018-07-06T07:09:25.539Z,20.90
2018-07-06T07:11:55.493Z,21.00
2018-07-06T07:14:25.295Z,21.00
2018-07-06T07:16:55.227Z,21.20
2018-07-06T07:19:25.192Z,21.30
2018-07-06T07:21:56.793Z,21.50
2018-07-06T07:24:27.575Z,21.60
2018-07-06T07:26:58.835Z,21.80
2018-07-06T07:29:28.828Z,21.90
2018-07-06T07:31:59.362Z,22.00
2018-07-06T07:34:29.426Z,21.90
2018-07-06T07:36:59.109Z,22.20
2018-07-06T07:39:28.987Z,21.90
2018-07-06T07:41:59.657Z,22.00
2018-07-06T07:44:29.518Z,22.20
2018-07-06T07:46:59.207Z,22.40
2018-07-06T07:52:09.980Z,22.20
2018-07-06T07:54:59.859Z,22.10
2018-07-06T07:57:29.672Z,22.40
2018-07-06T08:00:00.281Z,22.60
2018-07-06T08:02:30.683Z,22.80
2018-07-06T08:05:00.826Z,22.80
2018-07-06T08:07:31.302Z,22.90
2018-07-06T08:10:01.204Z,23.10
2018-07-06T08:12:31.802Z,23.20
2018-07-06T08:15:01.474Z,23.30
2018-07-06T08:17:31.284Z,23.40
2018-07-06T08:20:01.115Z,23.50
2018-07-06T08:22:31.855Z,23.40
2018-07-06T08:25:01.578Z,23.90
2018-07-06T08:27:31.642Z,24.10
2018-07-06T08:30:01.448Z,24.40
2018-07-06T08:36:13.924Z,24.60
2018-07-06T08:38:43.750Z,24.80
2018-07-06T08:41:14.068Z,24.20
2018-07-06T08:43:43.646Z,24.10
2018-07-06T08:46:13.696Z,24.20
2018-07-06T08:48:44.046Z,24.60
2018-07-06T08:51:16.349Z,24.40
2018-07-06T08:53:47.365Z,24.70
2018-07-06T08:56:18.377Z,24.90
2018-07-06T08:58:48.769Z,25.20
2018-07-06T09:01:18.902Z,25.80
2018-07-06T09:03:48.740Z,25.60
2018-07-06T09:06:18.891Z,25.70
2018-07-06T09:08:48.702Z,25.30
2018-07-06T09:11:18.429Z,25.40
2018-07-06T09:13:49.781Z,25.20
2018-07-06T09:16:19.559Z,24.90
2018-07-06T09:18:49.905Z,24.80
2018-07-06T09:21:20.398Z,24.90
2018-07-06T09:23:50.316Z,25.10
2018-07-06T09:28:49.667Z,25.70
2018-07-06T09:31:20.079Z,26.10
2018-07-06T09:33:50.712Z,26.20
2018-07-06T09:36:20.392Z,26.00
2018-07-06T09:38:49.976Z,26.30
2018-07-06T09:41:20.186Z,26.30
2018-07-06T09:43:50.876Z,26.60
2018-07-06T09:48:50.684Z,26.60
2018-07-06T09:51:20.440Z,26.50
2018-07-06T09:53:51.151Z,26.80
2018-07-06T09:56:21.644Z,27.30
2018-07-06T09:58:51.440Z,27.50
2018-07-06T10:01:23.569Z,27.60
2018-07-06T10:03:55.266Z,27.60
2018-07-06T10:06:25.686Z,27.30
2018-07-06T10:08:55.672Z,27.30
2018-07-06T10:16:24.544Z,27.10
2018-07-06T10:18:54.400Z,27.30
2018-07-06T10:21:24.186Z,27.60
2018-07-06T10:23:53.695Z,27.70
2018-07-06T10:26:23.927Z,27.80
2018-07-06T10:28:59.916Z,27.50
2018-07-06T10:32:33.225Z,28.00
2018-07-06T10:35:03.008Z,28.20
2018-07-06T10:37:32.543Z,28.70
2018-07-06T10:40:02.322Z,28.90
2018-07-06T10:42:31.659Z,29.20
2018-07-06T10:45:01.155Z,29.40
2018-07-06T10:47:31.244Z,29.30
2018-07-06T10:50:01.909Z,29.30
2018-07-06T11:39:48.410Z,30.00
2018-07-06T11:42:18.142Z,30.00
2018-07-06T11:44:47.616Z,30.30
2018-07-06T11:47:17.362Z,30.70
2018-07-06T11:49:47.550Z,30.00
2018-07-06T11:52:17.396Z,30.00
2018-07-06T11:54:47.316Z,29.80
2018-07-06T11:57:16.916Z,29.40
2018-07-06T11:59:47.044Z,29.30
2018-07-06T12:02:17.508Z,29.60
2018-07-06T12:04:47.148Z,29.70
2018-07-06T12:07:17.361Z,30.00
2018-07-06T12:09:47.766Z,29.90
2018-07-06T12:12:17.180Z,29.70
2018-07-06T12:14:46.631Z,30.00
2018-07-06T12:17:16.517Z,29.80
2018-07-06T12:19:47.041Z,30.10
2018-07-06T12:22:16.755Z,30.20
2018-07-06T12:24:46.246Z,30.60
2018-07-06T12:27:16.191Z,30.30
2018-07-06T12:29:46.103Z,31.00
2018-07-06T12:32:16.221Z,31.70
2018-07-06T12:34:45.795Z,31.50
2018-07-06T12:37:15.447Z,30.70
2018-07-06T12:39:46.109Z,30.80
2018-07-06T12:42:15.793Z,31.00
2018-07-06T12:47:49.037Z,30.30
2018-07-06T12:50:19.031Z,30.00
2018-07-06T12:52:48.679Z,29.60
2018-07-06T12:55:20.987Z,28.90
2018-07-06T12:57:51.461Z,28.70
2018-07-06T13:00:23.215Z,28.70
2018-07-06T13:02:54.950Z,29.40
2018-07-06T13:05:24.598Z,30.10
2018-07-06T13:07:54.261Z,30.20
2018-07-06T13:10:23.740Z,30.00
2018-07-06T13:12:53.668Z,29.70
2018-07-06T13:15:23.197Z,29.30
2018-07-06T13:17:52.964Z,28.90
2018-07-06T13:20:22.313Z,29.00
2018-07-06T13:22:52.200Z,29.20
2018-07-06T13:25:21.873Z,29.50
2018-07-06T13:27:56.732Z,29.60
2018-07-06T13:30:26.211Z,29.00
2018-07-06T13:32:56.497Z,28.70
2018-07-06T13:35:26.646Z,29.10
2018-07-06T13:40:25.241Z,29.10
2018-07-06T13:42:54.874Z,29.20
2018-07-06T13:45:24.254Z,29.40
2018-07-06T13:47:53.928Z,29.60
2018-07-06T13:50:26.858Z,29.40
2018-07-06T13:52:56.985Z,29.30
2018-07-06T13:55:27.393Z,28.90
2018-07-06T13:57:56.781Z,28.80
2018-07-06T14:00:27.670Z,28.50
2018-07-06T14:02:57.735Z,28.80
2018-07-06T14:05:28.354Z,29.40
2018-07-06T14:07:57.844Z,29.30
2018-07-06T14:10:27.298Z,29.10
2018-07-06T14:12:57.084Z,29.00
2018-07-06T14:15:26.680Z,29.00
2018-07-06T14:17:57.919Z,28.50
2018-07-06T14:20:28.300Z,29.00
2018-07-06T14:22:57.955Z,28.80
2018-07-06T14:25:28.391Z,29.20
2018-07-06T14:27:58.105Z,29.30
2018-07-06T14:30:27.881Z,29.70
2018-07-06T14:32:58.257Z,29.70
2018-07-06T14:35:28.345Z,29.90
2018-07-06T14:37:58.623Z,29.80
2018-07-06T14:40:29.333Z,29.60
2018-07-06T14:42:59.787Z,29.50
2018-07-06T14:45:30.543Z,29.50
2018-07-06T14:50:29.789Z,29.60
2018-07-06T14:55:28.955Z,29.50
2018-07-06T14:57:59.999Z,29.10
2018-07-06T15:00:31.517Z,29.60
2018-07-06T15:03:01.584Z,29.70
2018-07-06T15:05:32.365Z,29.10
2018-07-06T15:08:03.434Z,28.40
2018-07-06T15:10:34.291Z,28.90
2018-07-06T15:13:04.443Z,28.80
2018-07-06T15:15:35.013Z,28.70
2018-07-06T15:18:12.347Z,28.70
2018-07-06T15:20:46.839Z,28.70
2018-07-06T15:23:20.178Z,28.50
2018-07-06T15:25:51.579Z,28.20
2018-07-06T15:28:23.078Z,28.40
2018-07-06T15:30:52.996Z,28.40
2018-07-06T15:33:39.070Z,28.40
2018-07-06T15:36:10.613Z,29.00
2018-07-06T15:38:40.562Z,29.10
2018-07-06T15:41:12.748Z,28.90
2018-07-06T15:43:42.698Z,29.00
2018-07-06T15:46:12.682Z,28.60
2018-07-06T15:48:45.666Z,29.20
2018-07-06T15:51:20.130Z,29.40
2018-07-06T15:53:52.580Z,29.30
2018-07-06T15:58:55.796Z,28.30
2018-07-06T16:01:25.585Z,28.00
2018-07-06T16:03:54.968Z,27.80
2018-07-06T16:06:24.470Z,28.10
2018-07-06T16:08:57.590Z,28.00
2018-07-06T16:11:41.117Z,27.70
2018-07-06T16:14:17.230Z,27.90
2018-07-06T16:16:51.652Z,28.00
2018-07-06T16:19:32.250Z,28.20
2018-07-06T16:22:05.220Z,28.20
2018-07-06T16:24:36.914Z,28.20
2018-07-06T16:27:07.507Z,28.00
2018-07-06T16:29:44.145Z,27.70
2018-07-06T16:32:22.640Z,28.30
2018-07-06T16:35:04.826Z,28.20
2018-07-06T16:37:35.596Z,28.20
2018-07-06T16:40:05.353Z,28.30
2018-07-06T16:42:34.790Z,28.20
2018-07-06T16:45:04.827Z,28.30
2018-07-06T16:47:41.376Z,28.10
2018-07-06T16:50:14.561Z,28.20
2018-07-06T16:52:43.969Z,28.60
2018-07-06T16:55:14.230Z,28.40
2018-07-06T16:57:43.595Z,28.60
2018-07-06T17:00:13.013Z,28.30
2018-07-06T17:02:42.197Z,28.40
2018-07-06T17:05:11.701Z,28.30
2018-07-06T17:07:41.026Z,28.10
2018-07-06T17:10:10.383Z,27.60
2018-07-06T17:12:39.984Z,27.50
2018-07-06T17:15:09.759Z,27.50
2018-07-06T17:17:40.471Z,27.30
2018-07-06T17:20:09.843Z,27.30
2018-07-06T17:22:39.078Z,26.90
2018-07-06T17:25:09.727Z,26.70
2018-07-06T17:27:39.217Z,26.30
2018-07-06T17:30:08.981Z,26.10
2018-07-06T17:32:39.888Z,25.90
2018-07-06T17:37:39.919Z,25.60
2018-07-06T17:40:09.720Z,25.40
2018-07-06T17:42:39.777Z,25.30
2018-07-06T17:45:09.268Z,25.30
2018-07-06T17:47:38.942Z,25.10
2018-07-06T17:50:08.511Z,25.10
2018-07-06T17:52:38.596Z,25.10
2018-07-06T17:55:08.246Z,25.30
2018-07-06T17:57:37.811Z,25.30
2018-07-06T18:00:07.976Z,25.30
2018-07-06T18:02:37.619Z,25.30
2018-07-06T18:05:07.410Z,25.30
2018-07-06T18:07:36.947Z,25.20
2018-07-06T18:10:07.126Z,25.10
2018-07-06T18:12:37.238Z,25.10
2018-07-06T18:15:07.421Z,25.20
2018-07-06T18:17:37.428Z,25.20
2018-07-06T18:20:07.257Z,25.10
2018-07-06T18:22:36.753Z,25.00
2018-07-06T18:25:06.806Z,25.00
2018-07-06T18:27:36.968Z,25.00
2018-07-06T18:30:07.069Z,24.90
2018-07-06T18:32:36.410Z,24.90
2018-07-06T18:35:06.547Z,24.70
2018-07-06T18:37:36.147Z,24.60
2018-07-06T18:40:06.836Z,24.50
2018-07-06T18:42:38.376Z,24.50
2018-07-06T18:45:11.491Z,24.40
2018-07-06T18:50:12.030Z,24.30
2018-07-06T18:52:41.724Z,24.30
2018-07-06T18:55:11.259Z,24.10
2018-07-06T18:57:42.587Z,24.10
2018-07-06T19:00:12.397Z,24.00
2018-07-06T19:02:42.874Z,23.90
2018-07-06T19:05:12.861Z,23.90
2018-07-06T19:07:42.557Z,23.80
2018-07-06T19:10:12.150Z,23.70
2018-07-06T19:12:41.841Z,23.60
2018-07-06T19:15:11.504Z,23.60
2018-07-06T19:17:41.863Z,23.50
2018-07-06T19:20:11.747Z,23.30
2018-07-06T19:22:47.129Z,23.20
2018-07-06T19:25:17.292Z,23.10
2018-07-06T19:30:15.668Z,22.90
2018-07-06T19:32:45.462Z,22.70
2018-07-06T19:35:15.304Z,22.60
2018-07-06T19:37:45.496Z,22.50
2018-07-06T19:42:43.777Z,22.30
2018-07-06T19:45:13.320Z,22.20
2018-07-06T19:50:12.720Z,22.10
2018-07-06T19:52:42.117Z,21.90
2018-07-06T19:55:12.200Z,21.80
2018-07-06T19:57:41.805Z,21.70
2018-07-06T20:02:41.127Z,21.40
2018-07-06T20:05:11.188Z,21.30
2018-07-06T20:07:41.047Z,21.20
2018-07-06T20:10:12.753Z,21.10
2018-07-06T20:12:42.525Z,21.00
2018-07-06T20:15:13.478Z,20.90
2018-07-06T20:17:43.780Z,20.80
2018-07-06T20:20:14.743Z,20.70
2018-07-06T20:22:44.890Z,20.60
2018-07-06T20:25:15.185Z,20.50
2018-07-06T20:27:45.264Z,20.50
2018-07-06T20:30:14.913Z,20.40
2018-07-06T20:32:44.355Z,20.30
2018-07-06T20:35:13.855Z,20.20
2018-07-06T20:37:44.471Z,20.10
2018-07-06T20:40:14.077Z,20.10
2018-07-06T20:42:44.213Z,20.00
2018-07-06T20:45:13.707Z,19.90
2018-07-06T20:47:43.243Z,19.80
2018-07-06T20:50:12.590Z,19.80
2018-07-06T20:52:42.117Z,19.70
2018-07-06T20:55:11.663Z,19.60
2018-07-06T20:57:41.275Z,19.50
2018-07-06T21:00:10.669Z,19.50
2018-07-06T21:02:40.358Z,19.40
2018-07-06T21:05:09.923Z,19.40
2018-07-06T21:07:39.543Z,19.30
2018-07-06T21:10:09.449Z,19.30
2018-07-06T21:12:38.889Z,19.20
2018-07-06T21:15:08.659Z,19.20
2018-07-06T21:17:38.259Z,19.10
2018-07-06T21:20:07.926Z,19.10
2018-07-06T21:22:38.164Z,19.00
2018-07-06T21:25:09.850Z,19.00
2018-07-06T21:27:39.515Z,18.90
2018-07-06T21:30:08.949Z,18.90
2018-07-06T21:32:39.052Z,18.80
2018-07-06T21:35:08.748Z,18.80
2018-07-06T21:37:38.378Z,18.70
2018-07-06T21:40:07.858Z,18.70
2018-07-06T21:42:37.265Z,18.60
2018-07-06T21:45:07.089Z,18.60
2018-07-06T21:47:37.306Z,18.50
2018-07-06T21:50:07.046Z,18.40
2018-07-06T21:52:36.940Z,18.40
2018-07-06T21:55:06.370Z,18.40
2018-07-06T21:57:35.770Z,18.30
2018-07-06T22:00:05.378Z,18.30
2018-07-06T22:02:35.090Z,18.20
2018-07-06T22:05:04.777Z,18.20
2018-07-06T22:07:34.216Z,18.20
2018-07-06T22:10:06.264Z,18.10
2018-07-06T22:12:36.505Z,18.10
2018-07-06T22:15:06.217Z,18.10
2018-07-06T22:17:35.726Z,18.00
2018-07-06T22:20:06.153Z,17.90
2018-07-06T22:22:35.602Z,17.90
2018-07-06T22:25:04.946Z,17.90
2018-07-06T22:27:34.605Z,17.80
2018-07-06T22:30:04.944Z,17.80
2018-07-06T22:32:34.267Z,17.80
2018-07-06T22:37:32.597Z,17.70
2018-07-06T22:40:02.361Z,17.60
2018-07-06T22:42:32.295Z,17.60
2018-07-06T22:45:01.797Z,17.60
2018-07-06T22:47:31.321Z,17.60
2018-07-06T22:50:00.744Z,17.60
2018-07-06T22:52:30.752Z,17.60
2018-07-06T22:55:00.238Z,17.50
2018-07-06T22:57:29.585Z,17.50
2018-07-06T22:59:59.311Z,17.50
2018-07-06T23:02:29.065Z,17.40
2018-07-06T23:07:29.223Z,17.30
2018-07-06T23:10:00.006Z,17.30
2018-07-06T23:12:29.393Z,17.30
2018-07-06T23:14:59.104Z,17.30
2018-07-06T23:17:29.192Z,17.20
2018-07-06T23:19:58.949Z,17.20
2018-07-06T23:23:07.957Z,17.10
2018-07-06T23:25:39.100Z,17.10
2018-07-06T23:28:08.624Z,17.10
2018-07-06T23:30:38.090Z,17.00
2018-07-06T23:33:08.920Z,17.10
2018-07-06T23:35:38.608Z,17.00
2018-07-06T23:38:08.982Z,17.00
2018-07-06T23:40:38.397Z,16.90
2018-07-06T23:43:07.813Z,16.90
2018-07-06T23:45:37.461Z,16.90
2018-07-06T23:48:07.085Z,16.80
2018-07-06T23:50:36.726Z,16.80
2018-07-06T23:53:06.445Z,16.80
2018-07-06T23:55:36.594Z,16.70
2018-07-06T23:58:06.309Z,16.60
